Time,TemperatureF,DewpointF,PressureIn,WindDirection,WindDirectionDegrees,WindSpeedMPH,WindSpeedGustMPH,Humidity,HourlyPrecipIn,Conditions,Clouds,dailyrainin,SolarRadiationWatts/m^2,SoftwareType,DateUTC
2013-02-22 00:00:00,44.1,21.3,30.25,South,184,0.0,7.0,40,0.00,,---,0.00,0.00,VWS V14.00,2013-02-22 05:00:00,
2013-02-22 00:05:00,44.1,21.3,30.26,South,184,0.0,0.0,40,0.00,,---,0.00,0.00,VWS V14.00,2013-02-22 05:05:00,
2013-02-22 00:10:00,44.1,21.3,30.25,South,184,0.0,1.0,40,0.00,,---,0.00,0.00,VWS V14.00,2013-02-22 05:10:00,
2013-02-22 00:15:00,44.1,21.9,30.26,SSE,150,0.0,2.0,41,0.00,,---,0.00,0.00,VWS V14.00,2013-02-22 05:15:00,
2013-02-22 00:20:00,44.1,21.3,30.27,SSE,150,0.0,2.0,40,0.00,,---,0.00,0.00,VWS V14.00,2013-02-22 05:20:00,
2013-02-22 00:25:00,44.1,21.3,30.27,WNW,298,0.0,2.0,40,0.00,,---,0.00,0.00,VWS V14.00,2013-02-22 05:25:00,
2013-02-22 00:30:00,43.9,21.2,30.28,NNE,29,0.0,0.0,40,0.00,,---,0.00,0.00,VWS V14.00,2013-02-22 05:30:00,
2013-02-22 00:35:00,43.9,21.7,30.28,NNE,29,0.0,2.0,41,0.00,,---,0.00,0.00,VWS V14.00,2013-02-22 05:35:00,
2013-02-22 00:40:00,43.9,22.3,30.28,NNE,29,0.0,2.0,42,0.00,,---,0.00,0.00,VWS V14.00,2013-02-22 05:40:00,
2013-02-22 00:45:00,43.9,22.9,30.28,NNE,29,0.0,2.0,43,0.00,,---,0.00,0.00,VWS V14.00,2013-02-22 05:45:00,
2013-02-22 00:50:00,43.8,22.2,30.30,NNE,26,1.0,3.0,42,0.00,,---,0.00,0.00,VWS V14.00,2013-02-22 05:50:00,
2013-02-22 00:55:00,43.6,22.0,30.32,NNE,26,0.0,3.0,42,0.00,,---,0.00,0.00,VWS V14.00,2013-02-22 05:55:00,
2013-02-22 01:00:00,43.6,23.1,30.33,NNE,26,0.0,3.0,44,0.00,,---,0.00,0.00,VWS V14.00,2013-02-22 06:00:00,
2013-02-22 01:05:00,43.6,23.1,30.34,NNE,26,0.0,0.0,44,0.00,,---,0.00,0.00,VWS V14.00,2013-02-22 06:05:00,
2013-02-22 01:10:00,43.6,24.7,30.34,NNE,26,0.0,0.0,47,0.00,,---,0.00,0.00,VWS V14.00,2013-02-22 06:10:00,
2013-02-22 01:15:00,43.5,23.6,30.35,NNE,26,0.0,0.0,45,0.00,,---,0.00,0.00,VWS V14.00,2013-02-22 06:15:00,
2013-02-22 01:20:00,43.5,24.6,30.36,NNE,26,0.0,0.0,47,0.00,,---,0.00,0.00,VWS V14.00,2013-02-22 06:20:00,
2013-02-22 01:25:00,43.3,23.9,30.36,NNE,26,0.0,0.0,46,0.00,,---,0.00,0.00,VWS V14.00,2013-02-22 06:25:00,
2013-02-22 01:30:00,43.2,25.4,30.35,NNE,26,0.0,0.0,49,0.00,,---,0.00,0.00,VWS V14.00,2013-02-22 06:30:00,
2013-02-22 01:35:00,43.1,24.3,30.34,NNE,26,0.0,2.0,47,0.00,,---,0.00,0.00,VWS V14.00,2013-02-22 06:35:00,
2013-02-22 01:40:00,42.9,24.1,30.33,NNW,348,5.0,5.0,47,0.00,,---,0.00,0.00,VWS V14.00,2013-02-22 06:40:00,
2013-02-22 01:45:00,42.6,25.3,30.32,North,350,0.0,5.0,50,0.00,,---,0.00,0.00,VWS V14.00,2013-02-22 06:45:00,
2013-02-22 01:50:00,42.5,26.6,30.31,NNE,22,1.0,5.0,53,0.00,,---,0.00,0.00,VWS V14.00,2013-02-22 06:50:00,
2013-02-22 01:55:00,42.1,28.8,30.30,NE,37,2.0,5.0,59,0.01,,---,0.01,0.00,VWS V14.00,2013-02-22 06:55:00,
2013-02-22 02:00:00,41.6,30.3,30.29,NE,37,0.0,5.0,64,0.01,,---,0.01,0.00,VWS V14.00,2013-02-22 07:00:00,
2013-02-22 02:05:00,41.2,31.1,30.29,NE,37,0.0,1.0,67,0.03,,---,0.03,0.00,VWS V14.00,2013-02-22 07:05:00,
2013-02-22 02:10:00,40.8,31.4,30.29,NE,37,0.0,1.0,69,0.04,,---,0.04,0.00,VWS V14.00,2013-02-22 07:10:00,
2013-02-22 02:15:00,40.3,31.7,30.30,NE,37,0.0,1.0,71,0.04,,---,0.04,0.00,VWS V14.00,2013-02-22 07:15:00,
2013-02-22 02:20:00,40.1,31.8,30.30,NE,37,0.0,1.0,72,0.05,,---,0.05,0.00,VWS V14.00,2013-02-22 07:20:00,
2013-02-22 02:25:00,39.6,32.3,30.30,NE,37,1.0,1.0,75,0.05,,---,0.05,0.00,VWS V14.00,2013-02-22 07:25:00,
2013-02-22 02:30:00,39.2,32.6,30.30,NE,37,0.0,1.0,77,0.05,,---,0.05,0.00,VWS V14.00,2013-02-22 07:30:00,
2013-02-22 02:35:00,38.8,32.9,30.29,NE,37,0.0,1.0,79,0.06,,---,0.06,0.00,VWS V14.00,2013-02-22 07:35:00,
2013-02-22 02:40:00,38.5,32.9,30.30,NE,37,0.0,1.0,80,0.06,,---,0.06,0.00,VWS V14.00,2013-02-22 07:40:00,
2013-02-22 02:45:00,38.2,32.9,30.30,NE,37,0.0,3.0,81,0.07,,---,0.07,0.00,VWS V14.00,2013-02-22 07:45:00,
2013-02-22 02:50:00,37.9,32.6,30.31,NE,37,0.0,3.0,81,0.08,,---,0.08,0.00,VWS V14.00,2013-02-22 07:50:00,
2013-02-22 02:55:00,37.8,32.8,30.32,NW,309,1.0,3.0,82,0.09,,---,0.09,0.00,VWS V14.00,2013-02-22 07:55:00,
2013-02-22 03:00:00,37.5,32.8,30.32,NW,309,0.0,3.0,83,0.10,,---,0.10,0.00,VWS V14.00,2013-02-22 08:00:00,
2013-02-22 03:05:00,37.3,32.6,30.33,NW,309,0.0,0.0,83,0.10,,---,0.11,0.00,VWS V14.00,2013-02-22 08:05:00,
2013-02-22 03:10:00,37.3,32.9,30.33,North,355,3.0,3.0,84,0.11,,---,0.12,0.00,VWS V14.00,2013-02-22 08:10:00,
2013-02-22 03:15:00,37.0,32.9,30.32,North,351,1.0,3.0,85,0.11,,---,0.12,0.00,VWS V14.00,2013-02-22 08:15:00,
2013-02-22 03:20:00,36.9,32.8,30.32,North,351,0.0,3.0,85,0.12,,---,0.13,0.00,VWS V14.00,2013-02-22 08:20:00,
2013-02-22 03:25:00,36.8,33.0,30.33,North,349,2.0,3.0,86,0.13,,---,0.14,0.00,VWS V14.00,2013-02-22 08:25:00,
2013-02-22 03:30:00,36.5,32.7,30.34,NNW,340,0.0,5.0,86,0.14,,---,0.15,0.00,VWS V14.00,2013-02-22 08:30:00,
2013-02-22 03:35:00,36.3,32.5,30.35,NNW,340,1.0,1.0,86,0.11,,---,0.16,0.00,VWS V14.00,2013-02-22 08:35:00,
2013-02-22 03:40:00,36.3,32.8,30.34,NNW,340,0.0,2.0,87,0.12,,---,0.17,0.00,VWS V14.00,2013-02-22 08:40:00,
2013-02-22 03:45:00,36.2,32.7,30.33,NE,36,1.0,3.0,87,0.12,,---,0.17,0.00,VWS V14.00,2013-02-22 08:45:00,
2013-02-22 03:50:00,35.9,32.4,30.32,NE,36,1.0,3.0,87,0.14,,---,0.19,0.00,VWS V14.00,2013-02-22 08:50:00,
2013-02-22 03:55:00,35.8,32.6,30.31,NNE,31,2.0,4.0,88,0.15,,---,0.20,0.00,VWS V14.00,2013-02-22 08:55:00,
2013-02-22 04:00:00,35.6,32.4,30.31,NW,318,0.0,4.0,88,0.17,,---,0.22,0.00,VWS V14.00,2013-02-22 09:00:00,
2013-02-22 04:05:00,35.5,32.3,30.31,NW,318,0.0,2.0,88,0.13,,---,0.23,0.00,VWS V14.00,2013-02-22 09:05:00,
2013-02-22 04:10:00,35.5,32.6,30.29,NE,40,1.0,3.0,89,0.15,,---,0.25,0.00,VWS V14.00,2013-02-22 09:10:00,
2013-02-22 04:15:00,35.3,32.4,30.29,NNE,25,0.0,3.0,89,0.17,,---,0.27,0.00,VWS V14.00,2013-02-22 09:15:00,
2013-02-22 04:20:00,35.2,32.3,30.29,NE,51,0.0,4.0,89,0.19,,---,0.29,0.00,VWS V14.00,2013-02-22 09:20:00,
2013-02-22 04:25:00,35.0,32.1,30.29,East,91,0.0,4.0,89,0.21,,---,0.31,0.00,VWS V14.00,2013-02-22 09:25:00,
2013-02-22 04:30:00,35.0,32.1,30.30,East,91,0.0,4.0,89,0.22,,---,0.32,0.00,VWS V14.00,2013-02-22 09:30:00,
2013-02-22 04:35:00,34.9,32.0,30.30,NW,304,0.0,1.0,89,0.19,,---,0.34,0.00,VWS V14.00,2013-02-22 09:35:00,
2013-02-22 04:40:00,34.9,32.0,30.31,NW,313,0.0,2.0,89,0.20,,---,0.35,0.00,VWS V14.00,2013-02-22 09:40:00,
2013-02-22 04:45:00,34.7,32.1,30.32,SW,228,3.0,3.0,90,0.22,,---,0.37,0.00,VWS V14.00,2013-02-22 09:45:00,
2013-02-22 04:50:00,34.7,32.1,30.31,South,185,0.0,3.0,90,0.23,,---,0.38,0.00,VWS V14.00,2013-02-22 09:50:00,
2013-02-22 04:55:00,34.7,32.1,30.31,South,186,0.0,3.0,90,0.24,,---,0.39,0.00,VWS V14.00,2013-02-22 09:55:00,
2013-02-22 05:00:00,34.6,32.0,30.30,South,186,0.0,3.0,90,0.25,,---,0.40,0.00,VWS V14.00,2013-02-22 10:00:00,
2013-02-22 05:05:00,34.7,32.1,30.30,South,186,0.0,2.0,90,0.19,,---,0.41,0.00,VWS V14.00,2013-02-22 10:05:00,
2013-02-22 05:10:00,34.6,32.0,30.28,South,186,0.0,2.0,90,0.20,,---,0.42,0.00,VWS V14.00,2013-02-22 10:10:00,
2013-02-22 05:15:00,34.6,32.0,30.28,South,186,0.0,2.0,90,0.21,,---,0.43,0.00,VWS V14.00,2013-02-22 10:15:00,
2013-02-22 05:20:00,34.6,32.0,30.29,SSW,206,0.0,2.0,90,0.21,,---,0.43,0.00,VWS V14.00,2013-02-22 10:20:00,
2013-02-22 05:25:00,34.4,31.8,30.28,SSW,206,0.0,2.0,90,0.22,,---,0.44,0.00,VWS V14.00,2013-02-22 10:25:00,
2013-02-22 05:30:00,34.4,31.8,30.28,NNE,26,0.0,2.0,90,0.22,,---,0.44,0.00,VWS V14.00,2013-02-22 10:30:00,
2013-02-22 05:35:00,34.3,31.7,30.28,NE,56,1.0,4.0,90,0.12,,---,0.44,0.00,VWS V14.00,2013-02-22 10:35:00,
2013-02-22 05:40:00,34.1,31.8,30.28,NE,56,0.0,4.0,91,0.13,,---,0.45,0.00,VWS V14.00,2013-02-22 10:40:00,
2013-02-22 05:45:00,34.1,31.8,30.28,ESE,123,0.0,4.0,91,0.13,,---,0.45,0.00,VWS V14.00,2013-02-22 10:45:00,
2013-02-22 05:50:00,34.1,31.8,30.27,East,85,0.0,7.0,91,0.14,,---,0.46,0.00,VWS V14.00,2013-02-22 10:50:00,
2013-02-22 05:55:00,34.1,31.8,30.28,East,82,0.0,7.0,91,0.14,,---,0.46,0.00,VWS V14.00,2013-02-22 10:55:00,
2013-02-22 06:00:00,34.0,31.6,30.29,ENE,76,0.0,7.0,91,0.14,,---,0.46,0.00,VWS V14.00,2013-02-22 11:00:00,
2013-02-22 06:05:00,33.8,31.5,30.29,ENE,64,0.0,2.0,91,0.07,,---,0.47,0.00,VWS V14.00,2013-02-22 11:05:00,
2013-02-22 06:10:00,33.8,31.5,30.28,ENE,64,0.0,2.0,91,0.07,,---,0.47,0.00,VWS V14.00,2013-02-22 11:10:00,
2013-02-22 06:15:00,33.7,31.4,30.28,ENE,64,0.0,2.0,91,0.07,,---,0.47,0.00,VWS V14.00,2013-02-22 11:15:00,
2013-02-22 06:20:00,33.7,31.4,30.27,ENE,64,0.0,2.0,91,0.07,,---,0.47,0.00,VWS V14.00,2013-02-22 11:20:00,
2013-02-22 06:25:00,33.7,31.4,30.25,ENE,64,0.0,2.0,91,0.07,,---,0.47,0.00,VWS V14.00,2013-02-22 11:25:00,
2013-02-22 06:30:00,33.7,31.4,30.23,ENE,73,0.0,3.0,91,0.07,,---,0.47,0.00,VWS V14.00,2013-02-22 11:30:00,
2013-02-22 06:35:00,33.5,31.2,30.25,North,350,2.0,3.0,91,0.03,,---,0.47,0.00,VWS V14.00,2013-02-22 11:35:00,
2013-02-22 06:40:00,33.4,31.1,30.29,NNE,32,0.0,4.0,91,0.03,,---,0.47,0.00,VWS V14.00,2013-02-22 11:40:00,
2013-02-22 06:45:00,33.2,30.9,30.30,NNE,18,2.0,4.0,91,0.03,,---,0.47,0.00,VWS V14.00,2013-02-22 11:45:00,
2013-02-22 06:50:00,33.2,30.9,30.30,North,9,0.0,4.0,91,0.03,,---,0.47,0.00,VWS V14.00,2013-02-22 11:50:00,
2013-02-22 06:55:00,33.2,30.9,30.31,North,9,0.0,4.0,91,0.03,,---,0.47,0.00,VWS V14.00,2013-02-22 11:55:00,
2013-02-22 07:00:00,33.2,30.9,30.32,North,9,0.0,4.0,91,0.03,,---,0.47,0.00,VWS V14.00,2013-02-22 12:00:00,
2013-02-22 07:05:00,33.2,30.9,30.32,North,9,0.0,0.0,91,0.01,,---,0.47,0.00,VWS V14.00,2013-02-22 12:05:00,
2013-02-22 07:10:00,33.2,30.9,30.30,North,9,0.0,0.0,91,0.01,,---,0.47,0.00,VWS V14.00,2013-02-22 12:10:00,
2013-02-22 07:15:00,33.4,31.3,30.30,SSE,156,0.0,2.0,92,0.01,,---,0.47,5.00,VWS V14.00,2013-02-22 12:15:00,
2013-02-22 07:20:00,33.2,30.9,30.31,North,351,3.0,3.0,91,0.01,,---,0.47,5.00,VWS V14.00,2013-02-22 12:20:00,
2013-02-22 07:25:00,33.2,30.9,30.31,North,351,0.0,3.0,91,0.01,,---,0.47,7.00,VWS V14.00,2013-02-22 12:25:00,
2013-02-22 07:30:00,33.2,31.1,30.32,North,351,0.0,3.0,92,0.01,,---,0.47,11.00,VWS V14.00,2013-02-22 12:30:00,
2013-02-22 07:35:00,33.2,31.1,30.32,North,351,0.0,0.0,92,0.00,,---,0.47,14.00,VWS V14.00,2013-02-22 12:35:00,
2013-02-22 07:40:00,33.2,31.1,30.32,North,351,0.0,0.0,92,0.01,,---,0.48,14.00,VWS V14.00,2013-02-22 12:40:00,
2013-02-22 07:45:00,33.2,31.1,30.31,North,351,0.0,0.0,92,0.01,,---,0.48,18.00,VWS V14.00,2013-02-22 12:45:00,
2013-02-22 07:50:00,33.4,31.3,30.32,North,351,0.0,0.0,92,0.01,,---,0.48,18.00,VWS V14.00,2013-02-22 12:50:00,
2013-02-22 07:55:00,33.4,31.3,30.33,North,351,1.0,2.0,92,0.01,,---,0.48,14.00,VWS V14.00,2013-02-22 12:55:00,
2013-02-22 08:00:00,33.4,31.3,30.34,NNW,330,0.0,3.0,92,0.01,,---,0.48,16.00,VWS V14.00,2013-02-22 13:00:00,
2013-02-22 08:05:00,33.4,31.3,30.34,NNW,330,0.0,0.0,92,0.01,,---,0.48,19.00,VWS V14.00,2013-02-22 13:05:00,
2013-02-22 08:10:00,33.4,31.3,30.34,NNW,330,0.0,0.0,92,0.01,,---,0.48,26.00,VWS V14.00,2013-02-22 13:10:00,
2013-02-22 08:15:00,33.4,31.3,30.33,NNW,330,0.0,0.0,92,0.01,,---,0.48,33.00,VWS V14.00,2013-02-22 13:15:00,
2013-02-22 08:19:00,33.5,31.4,30.33,NNW,330,0.0,0.0,92,0.01,,---,0.48,33.00,VWS V14.00,2013-02-22 13:19:00,
2013-02-22 08:24:00,33.7,31.6,30.33,NNW,330,0.0,0.0,92,0.01,,---,0.48,32.00,VWS V14.00,2013-02-22 13:24:00,
2013-02-22 08:29:00,33.7,31.6,30.32,NNW,330,0.0,0.0,92,0.01,,---,0.48,47.00,VWS V14.00,2013-02-22 13:29:00,
2013-02-22 08:34:00,33.8,31.7,30.33,NNW,330,0.0,1.0,92,0.01,,---,0.48,49.00,VWS V14.00,2013-02-22 13:34:00,
2013-02-22 08:39:00,33.8,31.7,30.33,NNW,330,0.0,2.0,92,0.01,,---,0.48,53.00,VWS V14.00,2013-02-22 13:39:00,
2013-02-22 08:44:00,33.8,31.7,30.33,NNW,330,0.0,2.0,92,0.01,,---,0.48,65.00,VWS V14.00,2013-02-22 13:44:00,
2013-02-22 08:49:00,33.8,31.7,30.33,NNW,330,0.0,2.0,92,0.01,,---,0.48,62.00,VWS V14.00,2013-02-22 13:49:00,
2013-02-22 08:54:00,34.0,31.9,30.34,NNW,330,0.0,2.0,92,0.01,,---,0.48,44.00,VWS V14.00,2013-02-22 13:54:00,
2013-02-22 08:59:00,34.0,31.9,30.35,NNW,330,0.0,2.0,92,0.01,,---,0.48,30.00,VWS V14.00,2013-02-22 13:59:00,
2013-02-22 09:04:00,34.0,31.9,30.34,NNW,330,0.0,1.0,92,0.00,,---,0.48,33.00,VWS V14.00,2013-02-22 14:04:00,
2013-02-22 09:09:00,34.0,31.9,30.33,NNW,330,0.0,1.0,92,0.00,,---,0.48,35.00,VWS V14.00,2013-02-22 14:09:00,
2013-02-22 09:14:00,34.0,31.9,30.34,North,351,0.0,4.0,92,0.00,,---,0.48,40.00,VWS V14.00,2013-02-22 14:14:00,
2013-02-22 09:19:00,33.8,31.7,30.33,North,351,1.0,4.0,92,0.00,,---,0.48,40.00,VWS V14.00,2013-02-22 14:19:00,
2013-02-22 09:24:00,33.8,31.7,30.32,North,351,0.0,4.0,92,0.00,,---,0.48,46.00,VWS V14.00,2013-02-22 14:24:00,
2013-02-22 09:29:00,34.0,31.9,30.33,North,351,0.0,4.0,92,0.00,,---,0.48,42.00,VWS V14.00,2013-02-22 14:29:00,
2013-02-22 09:34:00,34.0,31.9,30.33,WSW,244,0.0,2.0,92,0.00,,---,0.48,44.00,VWS V14.00,2013-02-22 14:34:00,
2013-02-22 09:39:00,34.1,32.3,30.31,WSW,244,1.0,2.0,93,0.00,,---,0.48,49.00,VWS V14.00,2013-02-22 14:39:00,
2013-02-22 09:44:00,34.1,32.3,30.30,WSW,244,0.0,2.0,93,0.00,,---,0.48,65.00,VWS V14.00,2013-02-22 14:44:00,
2013-02-22 09:49:00,34.0,31.9,30.29,WSW,244,1.0,2.0,92,0.00,,---,0.48,69.00,VWS V14.00,2013-02-22 14:49:00,
2013-02-22 09:54:00,34.0,31.9,30.30,WSW,244,0.0,2.0,92,0.00,,---,0.48,63.00,VWS V14.00,2013-02-22 14:54:00,
2013-02-22 09:59:00,34.0,31.9,30.30,NNW,344,0.0,3.0,92,0.00,,---,0.48,46.00,VWS V14.00,2013-02-22 14:59:00,
2013-02-22 10:04:00,34.0,32.2,30.30,NNW,344,1.0,1.0,93,0.00,,---,0.48,62.00,VWS V14.00,2013-02-22 15:04:00,
2013-02-22 10:09:00,34.1,32.3,30.29,ENE,59,0.0,3.0,93,0.00,,---,0.48,118.00,VWS V14.00,2013-02-22 15:09:00,
2013-02-22 10:14:00,34.3,32.5,30.29,ENE,59,0.0,3.0,93,0.00,,---,0.48,118.00,VWS V14.00,2013-02-22 15:14:00,
2013-02-22 10:19:00,34.4,32.3,30.29,ENE,64,0.0,3.0,92,0.00,,---,0.48,104.00,VWS V14.00,2013-02-22 15:19:00,
2013-02-22 10:24:00,34.6,32.5,30.30,NNE,22,2.0,3.0,92,0.00,,---,0.48,141.00,VWS V14.00,2013-02-22 15:24:00,
2013-02-22 10:29:00,34.7,32.6,30.31,North,355,0.0,3.0,92,0.00,,---,0.48,135.00,VWS V14.00,2013-02-22 15:29:00,
2013-02-22 10:34:00,34.9,32.5,30.31,North,355,0.0,1.0,91,0.00,,---,0.48,125.00,VWS V14.00,2013-02-22 15:34:00,
2013-02-22 10:39:00,34.9,32.3,30.30,NNE,33,0.0,3.0,90,0.00,,---,0.48,105.00,VWS V14.00,2013-02-22 15:39:00,
2013-02-22 10:44:00,35.2,32.6,30.31,NNE,33,0.0,3.0,90,0.00,,---,0.48,116.00,VWS V14.00,2013-02-22 15:44:00,
2013-02-22 10:49:00,35.5,32.9,30.31,NNE,33,0.0,3.0,90,0.00,,---,0.48,137.00,VWS V14.00,2013-02-22 15:49:00,
2013-02-22 10:54:00,35.3,32.4,30.31,SSE,149,0.0,4.0,89,0.00,,---,0.48,132.00,VWS V14.00,2013-02-22 15:54:00,
2013-02-22 10:59:00,35.3,32.1,30.32,SE,127,0.0,4.0,88,0.00,,---,0.48,113.00,VWS V14.00,2013-02-22 15:59:00,
2013-02-22 11:04:00,35.5,32.3,30.31,SE,134,1.0,1.0,88,0.00,,---,0.48,134.00,VWS V14.00,2013-02-22 16:04:00,
2013-02-22 11:09:00,35.6,32.1,30.31,ESE,121,0.0,2.0,87,0.00,,---,0.48,144.00,VWS V14.00,2013-02-22 16:09:00,
2013-02-22 11:14:00,35.6,32.1,30.30,ENE,76,0.0,2.0,87,0.00,,---,0.48,105.00,VWS V14.00,2013-02-22 16:14:00,
2013-02-22 11:19:00,36.0,32.8,30.31,ENE,76,0.0,2.0,88,0.00,,---,0.48,100.00,VWS V14.00,2013-02-22 16:19:00,
2013-02-22 11:24:00,35.8,32.6,30.30,SSE,158,0.0,2.0,88,0.00,,---,0.48,165.00,VWS V14.00,2013-02-22 16:24:00,
2013-02-22 11:29:00,35.9,32.4,30.31,SE,132,1.0,3.0,87,0.00,,---,0.48,181.00,VWS V14.00,2013-02-22 16:29:00,
2013-02-22 11:34:00,36.0,32.5,30.31,SE,132,1.0,1.0,87,0.00,,---,0.48,165.00,VWS V14.00,2013-02-22 16:34:00,
2013-02-22 11:39:00,36.3,32.5,30.30,SE,132,1.0,2.0,86,0.00,,---,0.48,174.00,VWS V14.00,2013-02-22 16:39:00,
2013-02-22 11:44:00,36.6,32.8,30.30,SE,132,0.0,2.0,86,0.00,,---,0.48,181.00,VWS V14.00,2013-02-22 16:44:00,
2013-02-22 11:49:00,36.6,32.5,30.30,ESE,113,0.0,2.0,85,0.00,,---,0.48,153.00,VWS V14.00,2013-02-22 16:49:00,
2013-02-22 11:54:00,36.6,32.5,30.30,NE,42,2.0,2.0,85,0.00,,---,0.48,120.00,VWS V14.00,2013-02-22 16:54:00,
2013-02-22 11:59:00,36.8,32.7,30.30,NE,42,0.0,2.0,85,0.00,,---,0.48,79.00,VWS V14.00,2013-02-22 16:59:00,
2013-02-22 12:04:00,36.8,32.7,30.30,NE,42,0.0,0.0,85,0.00,,---,0.48,79.00,VWS V14.00,2013-02-22 17:04:00,
2013-02-22 12:09:00,36.8,32.7,30.29,NE,42,1.0,3.0,85,0.00,,---,0.48,79.00,VWS V14.00,2013-02-22 17:09:00,
2013-02-22 12:14:00,36.8,32.7,30.29,NE,42,0.0,3.0,85,0.00,,---,0.48,69.00,VWS V14.00,2013-02-22 17:14:00,
2013-02-22 12:19:00,36.8,32.7,30.29,NE,41,0.0,3.0,85,0.00,,---,0.48,77.00,VWS V14.00,2013-02-22 17:19:00,
2013-02-22 12:24:00,36.8,32.7,30.28,ENE,59,1.0,3.0,85,0.00,,---,0.48,63.00,VWS V14.00,2013-02-22 17:24:00,
2013-02-22 12:29:00,36.9,32.8,30.28,ENE,59,0.0,3.0,85,0.00,,---,0.48,62.00,VWS V14.00,2013-02-22 17:29:00,
2013-02-22 12:34:00,36.9,32.8,30.29,North,5,1.0,2.0,85,0.00,,---,0.48,69.00,VWS V14.00,2013-02-22 17:34:00,
2013-02-22 12:39:00,36.9,32.8,30.28,North,9,0.0,2.0,85,0.00,,---,0.48,91.00,VWS V14.00,2013-02-22 17:39:00,
2013-02-22 12:44:00,37.0,32.9,30.28,North,9,1.0,2.0,85,0.00,,---,0.48,86.00,VWS V14.00,2013-02-22 17:44:00,
2013-02-22 12:49:00,37.0,32.9,30.27,North,9,0.0,2.0,85,0.00,,---,0.48,97.00,VWS V14.00,2013-02-22 17:49:00,
2013-02-22 12:54:00,37.2,32.8,30.27,North,355,2.0,3.0,84,0.00,,---,0.48,69.00,VWS V14.00,2013-02-22 17:54:00,
2013-02-22 12:59:00,37.0,32.6,30.27,North,355,0.0,3.0,84,0.00,,---,0.48,63.00,VWS V14.00,2013-02-22 17:59:00,
2013-02-22 13:04:00,37.2,32.8,30.25,North,355,0.0,1.0,84,0.00,,---,0.48,83.00,VWS V14.00,2013-02-22 18:04:00,
2013-02-22 13:09:00,37.2,32.8,30.26,North,355,1.0,2.0,84,0.00,,---,0.48,67.00,VWS V14.00,2013-02-22 18:09:00,
2013-02-22 13:14:00,37.3,32.9,30.25,North,355,0.0,2.0,84,0.00,,---,0.48,83.00,VWS V14.00,2013-02-22 18:14:00,
2013-02-22 13:19:00,37.5,33.1,30.24,North,355,0.0,2.0,84,0.00,,---,0.48,113.00,VWS V14.00,2013-02-22 18:19:00,
2013-02-22 13:24:00,37.5,33.1,30.24,NNE,13,2.0,3.0,84,0.00,,---,0.48,144.00,VWS V14.00,2013-02-22 18:24:00,
2013-02-22 13:29:00,37.5,32.8,30.24,NNE,24,1.0,3.0,83,0.00,,---,0.48,83.00,VWS V14.00,2013-02-22 18:29:00,
2013-02-22 13:34:00,37.5,32.8,30.25,NNE,24,1.0,1.0,83,0.00,,---,0.48,62.00,VWS V14.00,2013-02-22 18:34:00,
2013-02-22 13:39:00,37.6,32.9,30.24,NNE,24,0.0,1.0,83,0.00,,---,0.48,65.00,VWS V14.00,2013-02-22 18:39:00,
2013-02-22 13:44:00,37.6,32.9,30.24,North,360,1.0,3.0,83,0.00,,---,0.48,72.00,VWS V14.00,2013-02-22 18:44:00,
2013-02-22 13:49:00,37.6,32.6,30.24,NE,36,2.0,4.0,82,0.00,,---,0.48,40.00,VWS V14.00,2013-02-22 18:49:00,
2013-02-22 13:54:00,37.5,32.5,30.24,NE,36,0.0,4.0,82,0.00,,---,0.48,42.00,VWS V14.00,2013-02-22 18:54:00,
2013-02-22 13:59:00,37.5,32.5,30.24,NE,53,0.0,4.0,82,0.00,,---,0.48,42.00,VWS V14.00,2013-02-22 18:59:00,
2013-02-22 14:04:00,37.5,32.8,30.23,NE,53,0.0,2.0,83,0.01,,---,0.49,42.00,VWS V14.00,2013-02-22 19:04:00,
2013-02-22 14:09:00,37.5,33.1,30.23,NE,53,0.0,2.0,84,0.03,,---,0.51,76.00,VWS V14.00,2013-02-22 19:09:00,
2013-02-22 14:14:00,37.3,33.2,30.23,NE,34,0.0,2.0,85,0.03,,---,0.51,86.00,VWS V14.00,2013-02-22 19:14:00,
2013-02-22 14:19:00,37.5,34.0,30.22,NE,34,0.0,2.0,87,0.04,,---,0.52,113.00,VWS V14.00,2013-02-22 19:19:00,
2013-02-22 14:24:00,37.3,34.1,30.22,NE,34,0.0,2.0,88,0.04,,---,0.52,77.00,VWS V14.00,2013-02-22 19:24:00,
2013-02-22 14:29:00,37.3,34.4,30.21,NE,34,0.0,2.0,89,0.04,,---,0.52,111.00,VWS V14.00,2013-02-22 19:29:00,
2013-02-22 14:34:00,37.2,34.3,30.21,NE,34,0.0,2.0,89,0.04,,---,0.52,58.00,VWS V14.00,2013-02-22 19:34:00,
2013-02-22 14:39:00,37.2,34.3,30.21,NE,34,0.0,2.0,89,0.04,,---,0.52,51.00,VWS V14.00,2013-02-22 19:39:00,
2013-02-22 14:44:00,37.2,34.3,30.21,NE,34,0.0,2.0,89,0.05,,---,0.53,46.00,VWS V14.00,2013-02-22 19:44:00,
2013-02-22 14:49:00,37.0,34.1,30.20,NE,34,0.0,2.0,89,0.05,,---,0.53,54.00,VWS V14.00,2013-02-22 19:49:00,
2013-02-22 14:54:00,37.0,34.3,30.20,NE,34,0.0,2.0,90,0.05,,---,0.53,35.00,VWS V14.00,2013-02-22 19:54:00,
2013-02-22 14:59:00,36.9,34.2,30.20,NNE,22,0.0,3.0,90,0.05,,---,0.53,26.00,VWS V14.00,2013-02-22 19:59:00,
2013-02-22 15:04:00,36.9,34.2,30.21,NNE,22,0.0,2.0,90,0.05,,---,0.53,23.00,VWS V14.00,2013-02-22 20:04:00,
2013-02-22 15:09:00,36.8,34.2,30.21,NE,43,0.0,6.0,90,0.06,,---,0.54,23.00,VWS V14.00,2013-02-22 20:09:00,
2013-02-22 15:14:00,36.8,34.2,30.21,NNW,348,1.0,6.0,90,0.06,,---,0.54,16.00,VWS V14.00,2013-02-22 20:14:00,
2013-02-22 15:19:00,36.6,34.0,30.21,North,351,0.0,6.0,90,0.06,,---,0.54,25.00,VWS V14.00,2013-02-22 20:19:00,
2013-02-22 15:24:00,36.6,34.0,30.22,North,360,0.0,6.0,90,0.07,,---,0.55,21.00,VWS V14.00,2013-02-22 20:24:00,
2013-02-22 15:29:00,36.6,34.0,30.22,North,360,0.0,6.0,90,0.07,,---,0.55,19.00,VWS V14.00,2013-02-22 20:29:00,
2013-02-22 15:34:00,36.6,34.2,30.23,North,360,1.0,2.0,91,0.04,,---,0.56,26.00,VWS V14.00,2013-02-22 20:34:00,
2013-02-22 15:39:00,36.5,34.1,30.22,North,5,2.0,3.0,91,0.04,,---,0.56,21.00,VWS V14.00,2013-02-22 20:39:00,
2013-02-22 15:44:00,36.5,34.1,30.22,North,5,0.0,3.0,91,0.04,,---,0.56,14.00,VWS V14.00,2013-02-22 20:44:00,
2013-02-22 15:49:00,36.5,34.1,30.22,North,5,0.0,3.0,91,0.04,,---,0.56,21.00,VWS V14.00,2013-02-22 20:49:00,
2013-02-22 15:54:00,36.5,34.1,30.24,North,5,0.0,3.0,91,0.04,,---,0.56,12.00,VWS V14.00,2013-02-22 20:54:00,
2013-02-22 15:59:00,36.5,34.1,30.24,NNW,346,3.0,3.0,91,0.04,,---,0.56,11.00,VWS V14.00,2013-02-22 20:59:00,
2013-02-22 16:04:00,36.5,34.1,30.24,NNE,21,0.0,4.0,91,0.03,,---,0.56,19.00,VWS V14.00,2013-02-22 21:04:00,
2013-02-22 16:09:00,36.3,33.9,30.24,NNE,21,1.0,4.0,91,0.03,,---,0.56,23.00,VWS V14.00,2013-02-22 21:09:00,
2013-02-22 16:14:00,36.3,34.2,30.23,NNE,21,0.0,4.0,92,0.03,,---,0.56,12.00,VWS V14.00,2013-02-22 21:14:00,
2013-02-22 16:19:00,36.3,34.2,30.23,NNE,21,1.0,4.0,92,0.04,,---,0.57,18.00,VWS V14.00,2013-02-22 21:19:00,
2013-02-22 16:24:00,36.5,34.4,30.23,NNE,19,0.0,4.0,92,0.04,,---,0.57,14.00,VWS V14.00,2013-02-22 21:24:00,
2013-02-22 16:29:00,36.5,34.4,30.22,NNE,19,0.0,4.0,92,0.04,,---,0.57,14.00,VWS V14.00,2013-02-22 21:29:00,
2013-02-22 16:34:00,36.5,34.4,30.22,NNE,19,0.0,0.0,92,0.02,,---,0.57,9.00,VWS V14.00,2013-02-22 21:34:00,
2013-02-22 16:39:00,36.5,34.4,30.22,NNE,19,0.0,0.0,92,0.02,,---,0.57,11.00,VWS V14.00,2013-02-22 21:39:00,
2013-02-22 16:44:00,36.5,34.4,30.22,North,360,1.0,3.0,92,0.02,,---,0.57,9.00,VWS V14.00,2013-02-22 21:44:00,
2013-02-22 16:49:00,36.5,34.4,30.22,North,360,0.0,3.0,92,0.02,,---,0.57,9.00,VWS V14.00,2013-02-22 21:49:00,
2013-02-22 16:54:00,36.5,34.4,30.22,North,360,0.0,3.0,92,0.02,,---,0.57,14.00,VWS V14.00,2013-02-22 21:54:00,
2013-02-22 16:59:00,36.3,34.2,30.22,North,349,2.0,3.0,92,0.02,,---,0.57,7.00,VWS V14.00,2013-02-22 21:59:00,
2013-02-22 17:04:00,36.3,34.2,30.22,North,349,2.0,3.0,92,0.02,,---,0.58,5.00,VWS V14.00,2013-02-22 22:04:00,
2013-02-22 17:09:00,36.3,34.2,30.21,North,349,0.0,3.0,92,0.02,,---,0.58,7.00,VWS V14.00,2013-02-22 22:09:00,
2013-02-22 17:14:00,36.3,34.2,30.21,NNE,15,2.0,3.0,92,0.02,,---,0.58,7.00,VWS V14.00,2013-02-22 22:14:00,
2013-02-22 17:19:00,36.3,34.2,30.20,NNE,15,0.0,3.0,92,0.02,,---,0.58,7.00,VWS V14.00,2013-02-22 22:19:00,
2013-02-22 17:24:00,36.3,34.2,30.21,NNE,15,1.0,3.0,92,0.02,,---,0.58,5.00,VWS V14.00,2013-02-22 22:24:00,
2013-02-22 17:29:00,36.2,34.1,30.22,NNE,14,0.0,3.0,92,0.03,,---,0.59,5.00,VWS V14.00,2013-02-22 22:29:00,
2013-02-22 17:34:00,36.2,34.1,30.21,NNE,15,0.0,2.0,92,0.02,,---,0.59,0.00,VWS V14.00,2013-02-22 22:34:00,
2013-02-22 17:39:00,36.2,34.1,30.21,NNE,15,0.0,2.0,92,0.02,,---,0.59,0.00,VWS V14.00,2013-02-22 22:39:00,
2013-02-22 17:44:00,36.2,34.1,30.21,NNE,15,0.0,2.0,92,0.02,,---,0.59,0.00,VWS V14.00,2013-02-22 22:44:00,
2013-02-22 17:49:00,36.2,34.1,30.21,NNE,15,0.0,2.0,92,0.02,,---,0.59,0.00,VWS V14.00,2013-02-22 22:49:00,
2013-02-22 17:54:00,36.0,33.9,30.21,North,355,0.0,2.0,92,0.02,,---,0.59,0.00,VWS V14.00,2013-02-22 22:54:00,
2013-02-22 17:59:00,36.0,33.9,30.22,NNW,342,0.0,4.0,92,0.02,,---,0.59,0.00,VWS V14.00,2013-02-22 22:59:00,
2013-02-22 18:04:00,36.0,34.2,30.22,North,355,2.0,4.0,93,0.01,,---,0.59,0.00,VWS V14.00,2013-02-22 23:04:00,
2013-02-22 18:09:00,36.0,34.2,30.22,North,355,0.0,5.0,93,0.01,,---,0.59,0.00,VWS V14.00,2013-02-22 23:09:00,
2013-02-22 18:14:00,36.0,34.2,30.22,North,355,0.0,5.0,93,0.01,,---,0.59,0.00,VWS V14.00,2013-02-22 23:14:00,
2013-02-22 18:19:00,36.0,34.2,30.21,NE,39,0.0,5.0,93,0.01,,---,0.59,0.00,VWS V14.00,2013-02-22 23:19:00,
2013-02-22 18:24:00,36.0,34.2,30.21,NE,39,0.0,5.0,93,0.01,,---,0.59,0.00,VWS V14.00,2013-02-22 23:24:00,
2013-02-22 18:29:00,36.0,34.2,30.22,North,350,0.0,5.0,93,0.01,,---,0.59,0.00,VWS V14.00,2013-02-22 23:29:00,
2013-02-22 18:34:00,35.9,34.1,30.22,North,350,0.0,3.0,93,0.00,,---,0.59,0.00,VWS V14.00,2013-02-22 23:34:00,
2013-02-22 18:39:00,35.9,34.1,30.22,North,5,1.0,4.0,93,0.00,,---,0.59,0.00,VWS V14.00,2013-02-22 23:39:00,
2013-02-22 18:44:00,35.9,34.1,30.21,North,5,0.0,4.0,93,0.00,,---,0.59,0.00,VWS V14.00,2013-02-22 23:44:00,
2013-02-22 18:49:00,35.9,34.1,30.20,North,5,0.0,4.0,93,0.00,,---,0.59,0.00,VWS V14.00,2013-02-22 23:49:00,
2013-02-22 18:54:00,35.9,34.1,30.20,North,5,0.0,4.0,93,0.00,,---,0.59,0.00,VWS V14.00,2013-02-22 23:54:00,
2013-02-22 18:59:00,35.9,34.1,30.20,NNE,28,0.0,4.0,93,0.01,,---,0.60,0.00,VWS V14.00,2013-02-22 23:59:00,
2013-02-22 19:04:00,36.0,34.2,30.20,NNE,28,0.0,2.0,93,0.01,,---,0.60,0.00,VWS V14.00,2013-02-23 00:04:00,
2013-02-22 19:09:00,36.0,34.2,30.20,NNE,28,0.0,2.0,93,0.01,,---,0.60,0.00,VWS V14.00,2013-02-23 00:09:00,
2013-02-22 19:14:00,36.0,34.2,30.20,NNE,28,0.0,2.0,93,0.01,,---,0.60,0.00,VWS V14.00,2013-02-23 00:14:00,
2013-02-22 19:19:00,36.0,34.2,30.19,NNE,29,3.0,3.0,93,0.01,,---,0.60,0.00,VWS V14.00,2013-02-23 00:19:00,
2013-02-22 19:24:00,36.0,34.2,30.19,NNE,29,1.0,3.0,93,0.01,,---,0.60,0.00,VWS V14.00,2013-02-23 00:24:00,
2013-02-22 19:29:00,36.0,34.2,30.19,NNE,29,0.0,3.0,93,0.01,,---,0.60,0.00,VWS V14.00,2013-02-23 00:29:00,
2013-02-22 19:34:00,36.0,34.2,30.19,NNE,29,0.0,1.0,93,0.01,,---,0.60,0.00,VWS V14.00,2013-02-23 00:34:00,
2013-02-22 19:39:00,36.0,34.2,30.19,North,9,0.0,4.0,93,0.01,,---,0.60,0.00,VWS V14.00,2013-02-23 00:39:00,
2013-02-22 19:44:00,36.0,34.2,30.19,North,9,0.0,4.0,93,0.01,,---,0.60,0.00,VWS V14.00,2013-02-23 00:44:00,
2013-02-22 19:49:00,36.0,34.4,30.18,North,9,0.0,4.0,94,0.01,,---,0.60,0.00,VWS V14.00,2013-02-23 00:49:00,
2013-02-22 19:54:00,36.0,34.4,30.18,North,9,0.0,4.0,94,0.01,,---,0.60,0.00,VWS V14.00,2013-02-23 00:54:00,
2013-02-22 19:59:00,36.0,34.4,30.18,North,9,0.0,4.0,94,0.01,,---,0.60,0.00,VWS V14.00,2013-02-23 00:59:00,
2013-02-22 20:04:00,36.0,34.4,30.18,North,9,0.0,2.0,94,0.00,,---,0.60,0.00,VWS V14.00,2013-02-23 01:04:00,
2013-02-22 20:09:00,36.0,34.4,30.19,North,9,1.0,2.0,94,0.00,,---,0.60,0.00,VWS V14.00,2013-02-23 01:09:00,
2013-02-22 20:14:00,36.0,34.4,30.19,North,10,2.0,3.0,94,0.00,,---,0.60,0.00,VWS V14.00,2013-02-23 01:14:00,
2013-02-22 20:19:00,36.0,34.4,30.19,North,10,1.0,3.0,94,0.00,,---,0.60,0.00,VWS V14.00,2013-02-23 01:19:00,
2013-02-22 20:24:00,36.2,34.6,30.19,North,10,0.0,3.0,94,0.00,,---,0.60,0.00,VWS V14.00,2013-02-23 01:24:00,
2013-02-22 20:29:00,36.2,34.6,30.20,North,10,1.0,3.0,94,0.00,,---,0.60,0.00,VWS V14.00,2013-02-23 01:29:00,
2013-02-22 20:34:00,36.2,34.6,30.20,North,10,1.0,2.0,94,0.00,,---,0.60,0.00,VWS V14.00,2013-02-23 01:34:00,
2013-02-22 20:39:00,36.2,34.6,30.20,NW,319,1.0,5.0,94,0.00,,---,0.60,0.00,VWS V14.00,2013-02-23 01:39:00,
2013-02-22 20:44:00,36.3,34.7,30.20,NNE,19,2.0,5.0,94,0.00,,---,0.60,0.00,VWS V14.00,2013-02-23 01:44:00,
2013-02-22 20:49:00,36.3,34.7,30.20,North,5,0.0,5.0,94,0.00,,---,0.60,0.00,VWS V14.00,2013-02-23 01:49:00,
2013-02-22 20:54:00,36.3,34.7,30.20,North,355,0.0,5.0,94,0.00,,---,0.60,0.00,VWS V14.00,2013-02-23 01:54:00,
2013-02-22 20:59:00,36.3,34.7,30.20,NNW,327,2.0,5.0,94,0.01,,---,0.61,0.00,VWS V14.00,2013-02-23 01:59:00,
2013-02-22 21:04:00,36.3,34.7,30.20,North,5,1.0,3.0,94,0.01,,---,0.61,0.00,VWS V14.00,2013-02-23 02:04:00,
2013-02-22 21:09:00,36.3,34.7,30.20,North,5,0.0,3.0,94,0.02,,---,0.62,0.00,VWS V14.00,2013-02-23 02:09:00,
2013-02-22 21:14:00,36.3,34.7,30.20,North,5,0.0,3.0,94,0.02,,---,0.62,0.00,VWS V14.00,2013-02-23 02:14:00,
2013-02-22 21:19:00,36.3,34.7,30.19,NNE,13,0.0,3.0,94,0.03,,---,0.63,0.00,VWS V14.00,2013-02-23 02:19:00,
2013-02-22 21:24:00,36.3,34.7,30.19,NNE,13,3.0,3.0,94,0.03,,---,0.63,0.00,VWS V14.00,2013-02-23 02:24:00,
2013-02-22 21:29:00,36.3,34.7,30.20,NNE,13,2.0,3.0,94,0.03,,---,0.63,0.00,VWS V14.00,2013-02-23 02:29:00,
2013-02-22 21:34:00,36.5,34.9,30.19,NNW,347,1.0,1.0,94,0.03,,---,0.63,0.00,VWS V14.00,2013-02-23 02:34:00,
2013-02-22 21:39:00,36.5,35.2,30.19,NNW,347,0.0,3.0,95,0.04,,---,0.64,0.00,VWS V14.00,2013-02-23 02:39:00,
2013-02-22 21:44:00,36.5,35.2,30.20,NNW,347,0.0,3.0,95,0.04,,---,0.64,0.00,VWS V14.00,2013-02-23 02:44:00,
2013-02-22 21:49:00,36.5,35.2,30.19,NNW,348,0.0,3.0,95,0.04,,---,0.64,0.00,VWS V14.00,2013-02-23 02:49:00,
2013-02-22 21:54:00,36.5,35.2,30.19,NNW,348,0.0,3.0,95,0.04,,---,0.64,0.00,VWS V14.00,2013-02-23 02:54:00,
2013-02-22 21:59:00,36.5,35.2,30.19,NNW,348,0.0,3.0,95,0.04,,---,0.64,0.00,VWS V14.00,2013-02-23 02:59:00,
2013-02-22 22:04:00,36.5,35.2,30.19,NNW,348,0.0,2.0,95,0.04,,---,0.65,0.00,VWS V14.00,2013-02-23 03:04:00,
2013-02-22 22:09:00,36.5,35.2,30.19,NNW,348,0.0,2.0,95,0.04,,---,0.65,0.00,VWS V14.00,2013-02-23 03:09:00,
2013-02-22 22:14:00,36.6,35.3,30.19,NNW,348,0.0,2.0,95,0.04,,---,0.65,0.00,VWS V14.00,2013-02-23 03:14:00,
2013-02-22 22:19:00,36.6,35.3,30.19,NNW,348,0.0,2.0,95,0.04,,---,0.65,0.00,VWS V14.00,2013-02-23 03:19:00,
2013-02-22 22:24:00,36.6,35.3,30.19,NNW,348,0.0,2.0,95,0.04,,---,0.65,0.00,VWS V14.00,2013-02-23 03:24:00,
2013-02-22 22:29:00,36.6,35.3,30.19,NNW,348,0.0,2.0,95,0.04,,---,0.65,0.00,VWS V14.00,2013-02-23 03:29:00,
2013-02-22 22:34:00,36.6,35.3,30.18,NNW,348,0.0,1.0,95,0.02,,---,0.65,0.00,VWS V14.00,2013-02-23 03:34:00,
2013-02-22 22:39:00,36.6,35.3,30.18,NNW,348,0.0,1.0,95,0.02,,---,0.65,0.00,VWS V14.00,2013-02-23 03:39:00,
2013-02-22 22:44:00,36.6,35.3,30.17,NNW,348,0.0,3.0,95,0.03,,---,0.66,0.00,VWS V14.00,2013-02-23 03:44:00,
2013-02-22 22:49:00,36.6,35.3,30.18,North,11,0.0,4.0,95,0.03,,---,0.66,0.00,VWS V14.00,2013-02-23 03:49:00,
2013-02-22 22:54:00,36.8,35.5,30.18,North,11,0.0,4.0,95,0.03,,---,0.66,0.00,VWS V14.00,2013-02-23 03:54:00,
2013-02-22 22:59:00,36.8,35.5,30.19,North,11,0.0,4.0,95,0.03,,---,0.66,0.00,VWS V14.00,2013-02-23 03:59:00,
2013-02-22 23:04:00,36.8,35.5,30.19,North,11,0.0,3.0,95,0.02,,---,0.67,0.00,VWS V14.00,2013-02-23 04:04:00,
2013-02-22 23:09:00,36.8,35.5,30.18,North,11,1.0,3.0,95,0.02,,---,0.67,0.00,VWS V14.00,2013-02-23 04:09:00,
2013-02-22 23:14:00,36.8,35.5,30.18,North,11,1.0,3.0,95,0.02,,---,0.67,0.00,VWS V14.00,2013-02-23 04:14:00,
2013-02-22 23:19:00,36.8,35.5,30.18,North,11,0.0,3.0,95,0.03,,---,0.68,0.00,VWS V14.00,2013-02-23 04:19:00,
2013-02-22 23:24:00,36.8,35.5,30.17,North,355,3.0,5.0,95,0.03,,---,0.68,0.00,VWS V14.00,2013-02-23 04:24:00,
2013-02-22 23:29:00,36.8,35.5,30.17,North,11,0.0,5.0,95,0.03,,---,0.68,0.00,VWS V14.00,2013-02-23 04:29:00,
2013-02-22 23:34:00,36.8,35.5,30.16,North,11,2.0,3.0,95,0.03,,---,0.68,0.00,VWS V14.00,2013-02-23 04:34:00,
2013-02-22 23:39:00,36.8,35.5,30.16,NNE,18,0.0,5.0,95,0.03,,---,0.68,0.00,VWS V14.00,2013-02-23 04:39:00,
2013-02-22 23:44:00,36.8,35.5,30.15,NNE,16,1.0,5.0,95,0.03,,---,0.68,0.00,VWS V14.00,2013-02-23 04:44:00,
2013-02-22 23:49:00,36.8,35.5,30.15,NNE,16,0.0,5.0,95,0.03,,---,0.68,0.00,VWS V14.00,2013-02-23 04:49:00,
2013-02-22 23:54:00,36.8,35.5,30.14,NNE,16,0.0,5.0,95,0.03,,---,0.68,0.00,VWS V14.00,2013-02-23 04:54:00,
2013-02-22 23:59:00,36.8,35.5,30.14,NNE,16,2.0,5.0,95,0.03,,---,0.68,0.00,VWS V14.00,2013-02-23 04:59:00,